sensor_id;sensor_type;location;lat;lon;timestamp;P1;durP1;ratioP1;P2;durP2;ratioP2
12663;SDS011;6396;58.490;15.528;2023-09-19T00:00:55;19.47;;;17.37;;
12663;SDS011;6396;58.490;15.528;2023-09-19T00:03:23;19.40;;;17.33;;
12663;SDS011;6396;58.490;15.528;2023-09-19T00:05:52;24.93;;;18.57;;
12663;SDS011;6396;58.490;15.528;2023-09-19T00:08:20;20.17;;;18.00;;
12663;SDS011;6396;58.490;15.528;2023-09-19T00:10:50;21.33;;;18.07;;
12663;SDS011;6396;58.490;15.528;2023-09-19T00:13:18;21.07;;;17.70;;
12663;SDS011;6396;58.490;15.528;2023-09-19T00:15:46;18.87;;;16.83;;
12663;SDS011;6396;58.490;15.528;2023-09-19T00:18:15;20.97;;;17.93;;
12663;SDS011;6396;58.490;15.528;2023-09-19T00:20:42;20.57;;;17.43;;
12663;SDS011;6396;58.490;15.528;2023-09-19T00:23:14;21.07;;;18.27;;
12663;SDS011;6396;58.490;15.528;2023-09-19T00:25:41;22.43;;;18.90;;
12663;SDS011;6396;58.490;15.528;2023-09-19T00:28:09;23.60;;;19.07;;
12663;SDS011;6396;58.490;15.528;2023-09-19T00:30:36;24.83;;;19.07;;
12663;SDS011;6396;58.490;15.528;2023-09-19T00:33:04;24.80;;;19.53;;
12663;SDS011;6396;58.490;15.528;2023-09-19T00:35:33;27.37;;;19.50;;
12663;SDS011;6396;58.490;15.528;2023-09-19T00:38:02;21.33;;;18.47;;
12663;SDS011;6396;58.490;15.528;2023-09-19T00:40:30;22.33;;;19.77;;
12663;SDS011;6396;58.490;15.528;2023-09-19T00:42:58;21.83;;;17.27;;
12663;SDS011;6396;58.490;15.528;2023-09-19T00:45:26;22.83;;;18.00;;
12663;SDS011;6396;58.490;15.528;2023-09-19T00:47:53;23.50;;;20.10;;
12663;SDS011;6396;58.490;15.528;2023-09-19T00:50:21;25.50;;;20.83;;
12663;SDS011;6396;58.490;15.528;2023-09-19T00:52:53;23.50;;;19.00;;
12663;SDS011;6396;58.490;15.528;2023-09-19T00:55:22;21.80;;;18.17;;
12663;SDS011;6396;58.490;15.528;2023-09-19T00:57:51;23.90;;;19.70;;
12663;SDS011;6396;58.490;15.528;2023-09-19T01:00:19;23.67;;;19.37;;
12663;SDS011;6396;58.490;15.528;2023-09-19T01:02:46;27.37;;;20.03;;
12663;SDS011;6396;58.490;15.528;2023-09-19T01:05:13;23.37;;;20.50;;
12663;SDS011;6396;58.490;15.528;2023-09-19T01:07:41;28.70;;;21.53;;
12663;SDS011;6396;58.490;15.528;2023-09-19T01:10:10;24.20;;;20.63;;
12663;SDS011;6396;58.490;15.528;2023-09-19T01:12:44;27.77;;;20.70;;
12663;SDS011;6396;58.490;15.528;2023-09-19T01:15:21;26.73;;;20.37;;
12663;SDS011;6396;58.490;15.528;2023-09-19T01:18:00;23.20;;;19.20;;
12663;SDS011;6396;58.490;15.528;2023-09-19T01:20:37;22.47;;;19.10;;
12663;SDS011;6396;58.490;15.528;2023-09-19T01:23:14;27.20;;;21.37;;
12663;SDS011;6396;58.490;15.528;2023-09-19T01:25:58;25.20;;;20.90;;
12663;SDS011;6396;58.490;15.528;2023-09-19T01:28:43;22.80;;;19.00;;
12663;SDS011;6396;58.490;15.528;2023-09-19T01:31:28;21.63;;;19.20;;
12663;SDS011;6396;58.490;15.528;2023-09-19T01:34:02;24.77;;;19.83;;
12663;SDS011;6396;58.490;15.528;2023-09-19T01:36:30;25.17;;;21.33;;
12663;SDS011;6396;58.490;15.528;2023-09-19T01:39:00;23.90;;;19.63;;
12663;SDS011;6396;58.490;15.528;2023-09-19T01:44:31;21.10;;;18.87;;
12663;SDS011;6396;58.490;15.528;2023-09-19T01:47:11;28.50;;;22.20;;
12663;SDS011;6396;58.490;15.528;2023-09-19T01:49:45;27.63;;;20.33;;
12663;SDS011;6396;58.490;15.528;2023-09-19T01:52:22;23.93;;;20.17;;
12663;SDS011;6396;58.490;15.528;2023-09-19T01:54:56;24.33;;;19.63;;
12663;SDS011;6396;58.490;15.528;2023-09-19T01:57:32;23.33;;;18.83;;
12663;SDS011;6396;58.490;15.528;2023-09-19T02:00:04;24.63;;;19.73;;
12663;SDS011;6396;58.490;15.528;2023-09-19T02:02:36;23.30;;;19.73;;
12663;SDS011;6396;58.490;15.528;2023-09-19T02:05:04;24.93;;;20.77;;
12663;SDS011;6396;58.490;15.528;2023-09-19T02:07:31;24.13;;;20.93;;
12663;SDS011;6396;58.490;15.528;2023-09-19T02:09:58;22.57;;;19.27;;
12663;SDS011;6396;58.490;15.528;2023-09-19T02:12:25;25.47;;;20.33;;
12663;SDS011;6396;58.490;15.528;2023-09-19T02:14:52;20.77;;;18.13;;
12663;SDS011;6396;58.490;15.528;2023-09-19T02:17:19;25.73;;;21.50;;
12663;SDS011;6396;58.490;15.528;2023-09-19T02:19:47;25.87;;;20.57;;
12663;SDS011;6396;58.490;15.528;2023-09-19T02:22:14;24.80;;;21.03;;
12663;SDS011;6396;58.490;15.528;2023-09-19T02:24:41;25.10;;;21.10;;
12663;SDS011;6396;58.490;15.528;2023-09-19T02:27:08;25.23;;;22.13;;
12663;SDS011;6396;58.490;15.528;2023-09-19T02:29:37;28.30;;;21.57;;
12663;SDS011;6396;58.490;15.528;2023-09-19T02:32:04;24.57;;;20.47;;
12663;SDS011;6396;58.490;15.528;2023-09-19T02:34:31;24.23;;;20.50;;
12663;SDS011;6396;58.490;15.528;2023-09-19T02:37:02;26.67;;;22.57;;
12663;SDS011;6396;58.490;15.528;2023-09-19T02:39:31;26.47;;;21.53;;
12663;SDS011;6396;58.490;15.528;2023-09-19T02:41:58;26.33;;;22.23;;
12663;SDS011;6396;58.490;15.528;2023-09-19T02:44:24;28.60;;;23.00;;
12663;SDS011;6396;58.490;15.528;2023-09-19T02:46:51;28.37;;;22.83;;
12663;SDS011;6396;58.490;15.528;2023-09-19T02:49:18;26.27;;;22.37;;
12663;SDS011;6396;58.490;15.528;2023-09-19T02:51:45;29.33;;;23.63;;
12663;SDS011;6396;58.490;15.528;2023-09-19T02:54:14;27.50;;;23.40;;
12663;SDS011;6396;58.490;15.528;2023-09-19T02:56:42;26.77;;;22.93;;
12663;SDS011;6396;58.490;15.528;2023-09-19T02:59:09;26.40;;;22.53;;
12663;SDS011;6396;58.490;15.528;2023-09-19T03:01:36;26.93;;;22.73;;
12663;SDS011;6396;58.490;15.528;2023-09-19T03:04:03;28.53;;;22.80;;
12663;SDS011;6396;58.490;15.528;2023-09-19T03:06:32;25.63;;;22.73;;
12663;SDS011;6396;58.490;15.528;2023-09-19T03:08:58;27.00;;;22.83;;
12663;SDS011;6396;58.490;15.528;2023-09-19T03:11:27;28.17;;;23.70;;
12663;SDS011;6396;58.490;15.528;2023-09-19T03:13:54;25.77;;;22.77;;
12663;SDS011;6396;58.490;15.528;2023-09-19T03:16:21;29.53;;;22.27;;
12663;SDS011;6396;58.490;15.528;2023-09-19T03:18:48;25.97;;;22.90;;
12663;SDS011;6396;58.490;15.528;2023-09-19T03:21:15;26.57;;;21.60;;
12663;SDS011;6396;58.490;15.528;2023-09-19T03:23:42;28.30;;;23.87;;
12663;SDS011;6396;58.490;15.528;2023-09-19T03:26:10;26.70;;;23.83;;
12663;SDS011;6396;58.490;15.528;2023-09-19T03:28:41;26.93;;;24.07;;
12663;SDS011;6396;58.490;15.528;2023-09-19T03:31:08;28.60;;;23.80;;
12663;SDS011;6396;58.490;15.528;2023-09-19T03:33:36;30.13;;;24.40;;
12663;SDS011;6396;58.490;15.528;2023-09-19T03:36:03;25.50;;;22.50;;
12663;SDS011;6396;58.490;15.528;2023-09-19T03:38:31;28.70;;;23.47;;
12663;SDS011;6396;58.490;15.528;2023-09-19T03:40:58;31.50;;;24.00;;
12663;SDS011;6396;58.490;15.528;2023-09-19T03:43:25;26.90;;;23.20;;
12663;SDS011;6396;58.490;15.528;2023-09-19T03:45:53;25.67;;;22.10;;
12663;SDS011;6396;58.490;15.528;2023-09-19T03:48:20;24.60;;;22.10;;
12663;SDS011;6396;58.490;15.528;2023-09-19T03:50:48;28.17;;;23.57;;
12663;SDS011;6396;58.490;15.528;2023-09-19T03:53:15;27.87;;;23.87;;
12663;SDS011;6396;58.490;15.528;2023-09-19T03:55:41;26.60;;;23.00;;
12663;SDS011;6396;58.490;15.528;2023-09-19T03:58:11;27.70;;;21.07;;
12663;SDS011;6396;58.490;15.528;2023-09-19T04:00:38;26.80;;;23.20;;
12663;SDS011;6396;58.490;15.528;2023-09-19T04:03:06;24.03;;;21.53;;
12663;SDS011;6396;58.490;15.528;2023-09-19T04:05:33;28.73;;;22.43;;
12663;SDS011;6396;58.490;15.528;2023-09-19T04:07:59;25.27;;;22.57;;
12663;SDS011;6396;58.490;15.528;2023-09-19T04:10:26;29.77;;;25.13;;
12663;SDS011;6396;58.490;15.528;2023-09-19T04:12:53;27.13;;;23.57;;
12663;SDS011;6396;58.490;15.528;2023-09-19T04:15:21;26.47;;;23.10;;
12663;SDS011;6396;58.490;15.528;2023-09-19T04:17:48;25.33;;;22.50;;
12663;SDS011;6396;58.490;15.528;2023-09-19T04:20:17;29.50;;;24.43;;
12663;SDS011;6396;58.490;15.528;2023-09-19T04:22:44;26.17;;;23.40;;
12663;SDS011;6396;58.490;15.528;2023-09-19T04:25:11;26.00;;;21.67;;
12663;SDS011;6396;58.490;15.528;2023-09-19T04:27:38;25.17;;;22.23;;
12663;SDS011;6396;58.490;15.528;2023-09-19T04:30:07;24.67;;;21.97;;
12663;SDS011;6396;58.490;15.528;2023-09-19T04:32:37;24.73;;;22.07;;
12663;SDS011;6396;58.490;15.528;2023-09-19T04:35:05;23.90;;;21.37;;
12663;SDS011;6396;58.490;15.528;2023-09-19T04:37:34;24.70;;;21.70;;
12663;SDS011;6396;58.490;15.528;2023-09-19T04:40:03;24.43;;;21.73;;
12663;SDS011;6396;58.490;15.528;2023-09-19T04:42:31;23.27;;;20.50;;
12663;SDS011;6396;58.490;15.528;2023-09-19T04:44:58;24.87;;;21.70;;
12663;SDS011;6396;58.490;15.528;2023-09-19T04:47:26;25.77;;;23.07;;
12663;SDS011;6396;58.490;15.528;2023-09-19T04:49:52;23.10;;;20.60;;
12663;SDS011;6396;58.490;15.528;2023-09-19T04:52:19;23.47;;;20.80;;
12663;SDS011;6396;58.490;15.528;2023-09-19T04:54:47;22.97;;;20.43;;
12663;SDS011;6396;58.490;15.528;2023-09-19T04:57:14;24.03;;;21.27;;
12663;SDS011;6396;58.490;15.528;2023-09-19T04:59:41;26.00;;;22.13;;
12663;SDS011;6396;58.490;15.528;2023-09-19T05:02:08;25.03;;;22.13;;
12663;SDS011;6396;58.490;15.528;2023-09-19T05:04:35;27.90;;;21.80;;
12663;SDS011;6396;58.490;15.528;2023-09-19T05:07:02;23.17;;;20.67;;
12663;SDS011;6396;58.490;15.528;2023-09-19T05:09:29;23.57;;;21.07;;
12663;SDS011;6396;58.490;15.528;2023-09-19T05:12:00;22.40;;;19.90;;
12663;SDS011;6396;58.490;15.528;2023-09-19T05:14:27;24.47;;;20.33;;
12663;SDS011;6396;58.490;15.528;2023-09-19T05:16:57;22.30;;;19.03;;
12663;SDS011;6396;58.490;15.528;2023-09-19T05:19:45;22.17;;;19.97;;
12663;SDS011;6396;58.490;15.528;2023-09-19T05:22:12;25.07;;;21.57;;
12663;SDS011;6396;58.490;15.528;2023-09-19T05:24:39;24.37;;;19.90;;
12663;SDS011;6396;58.490;15.528;2023-09-19T05:27:07;25.00;;;20.73;;
12663;SDS011;6396;58.490;15.528;2023-09-19T05:29:34;22.37;;;20.03;;
12663;SDS011;6396;58.490;15.528;2023-09-19T05:32:01;23.20;;;18.83;;
12663;SDS011;6396;58.490;15.528;2023-09-19T05:34:29;21.13;;;18.93;;
12663;SDS011;6396;58.490;15.528;2023-09-19T05:36:55;22.30;;;19.83;;
12663;SDS011;6396;58.490;15.528;2023-09-19T05:39:22;23.10;;;19.50;;
12663;SDS011;6396;58.490;15.528;2023-09-19T05:41:49;22.50;;;19.27;;
12663;SDS011;6396;58.490;15.528;2023-09-19T05:44:17;22.90;;;18.77;;
12663;SDS011;6396;58.490;15.528;2023-09-19T05:46:44;21.67;;;19.50;;
12663;SDS011;6396;58.490;15.528;2023-09-19T05:49:13;22.03;;;19.70;;
12663;SDS011;6396;58.490;15.528;2023-09-19T05:51:40;21.60;;;19.30;;
12663;SDS011;6396;58.490;15.528;2023-09-19T05:54:07;20.80;;;18.60;;
12663;SDS011;6396;58.490;15.528;2023-09-19T05:56:36;21.13;;;19.10;;
12663;SDS011;6396;58.490;15.528;2023-09-19T05:59:02;21.17;;;17.67;;
12663;SDS011;6396;58.490;15.528;2023-09-19T06:01:31;20.37;;;18.13;;
12663;SDS011;6396;58.490;15.528;2023-09-19T06:03:59;19.40;;;17.33;;
12663;SDS011;6396;58.490;15.528;2023-09-19T06:06:26;19.73;;;17.50;;
12663;SDS011;6396;58.490;15.528;2023-09-19T06:08:53;20.20;;;18.03;;
12663;SDS011;6396;58.490;15.528;2023-09-19T06:11:20;21.63;;;17.50;;
12663;SDS011;6396;58.490;15.528;2023-09-19T06:13:47;19.83;;;17.73;;
12663;SDS011;6396;58.490;15.528;2023-09-19T06:16:13;21.23;;;18.40;;
12663;SDS011;6396;58.490;15.528;2023-09-19T06:18:42;19.47;;;17.37;;
12663;SDS011;6396;58.490;15.528;2023-09-19T06:21:08;18.93;;;16.80;;
12663;SDS011;6396;58.490;15.528;2023-09-19T06:23:36;19.33;;;17.27;;
12663;SDS011;6396;58.490;15.528;2023-09-19T06:26:02;19.03;;;16.50;;
12663;SDS011;6396;58.490;15.528;2023-09-19T06:28:31;18.67;;;16.77;;
12663;SDS011;6396;58.490;15.528;2023-09-19T06:30:58;18.77;;;16.80;;
12663;SDS011;6396;58.490;15.528;2023-09-19T06:33:25;18.30;;;16.50;;
12663;SDS011;6396;58.490;15.528;2023-09-19T06:35:53;17.67;;;15.87;;
12663;SDS011;6396;58.490;15.528;2023-09-19T06:38:24;19.80;;;16.43;;
12663;SDS011;6396;58.490;15.528;2023-09-19T06:40:51;21.03;;;15.57;;
12663;SDS011;6396;58.490;15.528;2023-09-19T06:43:18;16.27;;;14.57;;
12663;SDS011;6396;58.490;15.528;2023-09-19T06:45:45;16.03;;;14.43;;
12663;SDS011;6396;58.490;15.528;2023-09-19T06:48:12;15.20;;;13.37;;
12663;SDS011;6396;58.490;15.528;2023-09-19T06:50:38;14.43;;;12.97;;
12663;SDS011;6396;58.490;15.528;2023-09-19T06:53:07;14.10;;;12.70;;
12663;SDS011;6396;58.490;15.528;2023-09-19T06:55:35;13.87;;;12.57;;
12663;SDS011;6396;58.490;15.528;2023-09-19T06:58:02;14.77;;;12.30;;
12663;SDS011;6396;58.490;15.528;2023-09-19T07:00:31;12.73;;;11.47;;
12663;SDS011;6396;58.490;15.528;2023-09-19T07:03:01;11.53;;;10.33;;
12663;SDS011;6396;58.490;15.528;2023-09-19T07:05:33;11.17;;;10.13;;
12663;SDS011;6396;58.490;15.528;2023-09-19T07:08:02;11.93;;;10.67;;
12663;SDS011;6396;58.490;15.528;2023-09-19T07:10:32;11.40;;;10.30;;
12663;SDS011;6396;58.490;15.528;2023-09-19T07:13:00;12.00;;;10.63;;
12663;SDS011;6396;58.490;15.528;2023-09-19T07:15:27;10.60;;;9.60;;
12663;SDS011;6396;58.490;15.528;2023-09-19T07:17:56;11.37;;;10.27;;
12663;SDS011;6396;58.490;15.528;2023-09-19T07:20:23;10.53;;;9.43;;
12663;SDS011;6396;58.490;15.528;2023-09-19T07:22:52;10.03;;;9.03;;
12663;SDS011;6396;58.490;15.528;2023-09-19T07:25:19;10.93;;;9.13;;
12663;SDS011;6396;58.490;15.528;2023-09-19T07:27:48;10.43;;;9.43;;
12663;SDS011;6396;58.490;15.528;2023-09-19T07:30:16;12.10;;;9.80;;
12663;SDS011;6396;58.490;15.528;2023-09-19T07:32:43;8.80;;;7.90;;
12663;SDS011;6396;58.490;15.528;2023-09-19T07:35:09;8.63;;;7.73;;
12663;SDS011;6396;58.490;15.528;2023-09-19T07:37:37;8.97;;;7.33;;
12663;SDS011;6396;58.490;15.528;2023-09-19T07:40:04;8.07;;;7.27;;
12663;SDS011;6396;58.490;15.528;2023-09-19T07:42:33;7.53;;;6.83;;
12663;SDS011;6396;58.490;15.528;2023-09-19T07:45:03;7.53;;;6.63;;
12663;SDS011;6396;58.490;15.528;2023-09-19T07:47:31;6.87;;;6.00;;
12663;SDS011;6396;58.490;15.528;2023-09-19T07:49:58;9.97;;;6.63;;
12663;SDS011;6396;58.490;15.528;2023-09-19T07:52:27;12.30;;;7.00;;
12663;SDS011;6396;58.490;15.528;2023-09-19T07:54:58;8.20;;;5.00;;
12663;SDS011;6396;58.490;15.528;2023-09-19T07:57:26;5.47;;;4.20;;
12663;SDS011;6396;58.490;15.528;2023-09-19T07:59:54;7.67;;;4.47;;
12663;SDS011;6396;58.490;15.528;2023-09-19T08:02:22;4.47;;;3.97;;
12663;SDS011;6396;58.490;15.528;2023-09-19T08:04:49;5.30;;;3.30;;
12663;SDS011;6396;58.490;15.528;2023-09-19T08:07:17;4.57;;;3.60;;
12663;SDS011;6396;58.490;15.528;2023-09-19T08:09:44;4.07;;;3.20;;
12663;SDS011;6396;58.490;15.528;2023-09-19T08:12:13;2.87;;;2.60;;
12663;SDS011;6396;58.490;15.528;2023-09-19T08:14:40;5.63;;;2.90;;
12663;SDS011;6396;58.490;15.528;2023-09-19T08:17:07;3.20;;;2.80;;
12663;SDS011;6396;58.490;15.528;2023-09-19T08:19:35;3.87;;;2.70;;
12663;SDS011;6396;58.490;15.528;2023-09-19T08:22:05;2.57;;;2.37;;
12663;SDS011;6396;58.490;15.528;2023-09-19T08:24:35;4.07;;;2.67;;
12663;SDS011;6396;58.490;15.528;2023-09-19T08:27:03;2.53;;;2.20;;
12663;SDS011;6396;58.490;15.528;2023-09-19T08:29:33;5.23;;;2.27;;
12663;SDS011;6396;58.490;15.528;2023-09-19T08:32:00;2.93;;;2.20;;
12663;SDS011;6396;58.490;15.528;2023-09-19T08:34:27;3.63;;;2.00;;
12663;SDS011;6396;58.490;15.528;2023-09-19T08:36:59;3.30;;;2.00;;
12663;SDS011;6396;58.490;15.528;2023-09-19T08:39:26;2.53;;;1.93;;
12663;SDS011;6396;58.490;15.528;2023-09-19T08:41:56;3.47;;;1.77;;
12663;SDS011;6396;58.490;15.528;2023-09-19T08:44:24;2.77;;;1.97;;
12663;SDS011;6396;58.490;15.528;2023-09-19T08:46:52;4.73;;;2.20;;
12663;SDS011;6396;58.490;15.528;2023-09-19T08:49:24;3.63;;;1.90;;
12663;SDS011;6396;58.490;15.528;2023-09-19T08:52:07;3.70;;;2.13;;
12663;SDS011;6396;58.490;15.528;2023-09-19T08:54:42;3.40;;;1.90;;
12663;SDS011;6396;58.490;15.528;2023-09-19T08:57:13;4.53;;;1.83;;
12663;SDS011;6396;58.490;15.528;2023-09-19T08:59:47;3.13;;;1.97;;
12663;SDS011;6396;58.490;15.528;2023-09-19T09:02:15;3.77;;;2.10;;
12663;SDS011;6396;58.490;15.528;2023-09-19T09:04:43;2.70;;;1.73;;
12663;SDS011;6396;58.490;15.528;2023-09-19T09:07:14;4.33;;;1.90;;
12663;SDS011;6396;58.490;15.528;2023-09-19T09:09:42;2.60;;;1.77;;
12663;SDS011;6396;58.490;15.528;2023-09-19T09:12:10;2.50;;;1.77;;
12663;SDS011;6396;58.490;15.528;2023-09-19T09:14:38;3.00;;;1.50;;
12663;SDS011;6396;58.490;15.528;2023-09-19T09:17:06;3.27;;;1.60;;
12663;SDS011;6396;58.490;15.528;2023-09-19T09:19:34;3.40;;;1.70;;
12663;SDS011;6396;58.490;15.528;2023-09-19T09:22:07;4.50;;;1.67;;
12663;SDS011;6396;58.490;15.528;2023-09-19T09:24:36;3.03;;;2.37;;
12663;SDS011;6396;58.490;15.528;2023-09-19T09:27:05;3.60;;;1.83;;
12663;SDS011;6396;58.490;15.528;2023-09-19T09:29:42;2.97;;;1.70;;
12663;SDS011;6396;58.490;15.528;2023-09-19T09:32:19;3.20;;;1.90;;
12663;SDS011;6396;58.490;15.528;2023-09-19T09:34:47;3.50;;;1.80;;
12663;SDS011;6396;58.490;15.528;2023-09-19T09:37:16;5.23;;;1.90;;
12663;SDS011;6396;58.490;15.528;2023-09-19T09:39:52;4.13;;;1.80;;
12663;SDS011;6396;58.490;15.528;2023-09-19T09:42:30;3.57;;;1.87;;
12663;SDS011;6396;58.490;15.528;2023-09-19T09:45:13;6.17;;;2.20;;
12663;SDS011;6396;58.490;15.528;2023-09-19T09:47:41;2.63;;;1.70;;
12663;SDS011;6396;58.490;15.528;2023-09-19T09:50:07;3.60;;;1.80;;
12663;SDS011;6396;58.490;15.528;2023-09-19T09:52:45;2.70;;;1.80;;
12663;SDS011;6396;58.490;15.528;2023-09-19T09:55:14;3.33;;;1.87;;
12663;SDS011;6396;58.490;15.528;2023-09-19T09:57:41;3.07;;;1.97;;
12663;SDS011;6396;58.490;15.528;2023-09-19T10:00:09;3.77;;;1.80;;
12663;SDS011;6396;58.490;15.528;2023-09-19T10:02:45;3.80;;;1.80;;
12663;SDS011;6396;58.490;15.528;2023-09-19T10:05:12;2.73;;;1.50;;
12663;SDS011;6396;58.490;15.528;2023-09-19T10:07:46;3.37;;;1.77;;
12663;SDS011;6396;58.490;15.528;2023-09-19T10:10:17;2.50;;;2.10;;
12663;SDS011;6396;58.490;15.528;2023-09-19T10:13:03;3.67;;;2.30;;
12663;SDS011;6396;58.490;15.528;2023-09-19T10:15:33;6.17;;;2.03;;
12663;SDS011;6396;58.490;15.528;2023-09-19T10:18:01;3.23;;;1.77;;
12663;SDS011;6396;58.490;15.528;2023-09-19T10:20:33;5.53;;;1.97;;
12663;SDS011;6396;58.490;15.528;2023-09-19T10:23:05;3.13;;;1.90;;
12663;SDS011;6396;58.490;15.528;2023-09-19T10:25:40;2.83;;;1.50;;
12663;SDS011;6396;58.490;15.528;2023-09-19T10:28:08;3.93;;;2.07;;
12663;SDS011;6396;58.490;15.528;2023-09-19T10:30:37;5.00;;;2.13;;
12663;SDS011;6396;58.490;15.528;2023-09-19T10:33:10;4.47;;;2.17;;
12663;SDS011;6396;58.490;15.528;2023-09-19T10:35:38;3.73;;;1.87;;
12663;SDS011;6396;58.490;15.528;2023-09-19T10:38:06;4.30;;;2.30;;
12663;SDS011;6396;58.490;15.528;2023-09-19T10:40:35;4.80;;;2.40;;
12663;SDS011;6396;58.490;15.528;2023-09-19T10:43:11;3.20;;;2.03;;
12663;SDS011;6396;58.490;15.528;2023-09-19T10:45:51;4.77;;;2.30;;
12663;SDS011;6396;58.490;15.528;2023-09-19T10:48:22;4.67;;;2.70;;
12663;SDS011;6396;58.490;15.528;2023-09-19T10:50:51;5.80;;;2.50;;
12663;SDS011;6396;58.490;15.528;2023-09-19T10:53:25;6.63;;;2.20;;
12663;SDS011;6396;58.490;15.528;2023-09-19T10:55:58;3.13;;;2.00;;
12663;SDS011;6396;58.490;15.528;2023-09-19T10:58:36;4.17;;;2.47;;
12663;SDS011;6396;58.490;15.528;2023-09-19T11:01:07;5.53;;;2.33;;
12663;SDS011;6396;58.490;15.528;2023-09-19T11:03:37;13.77;;;3.47;;
12663;SDS011;6396;58.490;15.528;2023-09-19T11:06:09;7.20;;;2.80;;
12663;SDS011;6396;58.490;15.528;2023-09-19T11:08:55;5.27;;;2.63;;
12663;SDS011;6396;58.490;15.528;2023-09-19T11:23:18;4.23;;;2.10;;
12663;SDS011;6396;58.490;15.528;2023-09-19T11:25:56;5.87;;;1.70;;
12663;SDS011;6396;58.490;15.528;2023-09-19T11:28:36;2.13;;;1.67;;
12663;SDS011;6396;58.490;15.528;2023-09-19T11:40:45;4.53;;;2.13;;
12663;SDS011;6396;58.490;15.528;2023-09-19T11:43:30;3.67;;;1.80;;
12663;SDS011;6396;58.490;15.528;2023-09-19T11:46:04;2.60;;;1.80;;
12663;SDS011;6396;58.490;15.528;2023-09-19T11:48:32;2.90;;;1.90;;
12663;SDS011;6396;58.490;15.528;2023-09-19T11:51:14;4.13;;;2.00;;
12663;SDS011;6396;58.490;15.528;2023-09-19T11:53:47;2.40;;;1.53;;
12663;SDS011;6396;58.490;15.528;2023-09-19T11:56:17;3.40;;;1.63;;
12663;SDS011;6396;58.490;15.528;2023-09-19T11:58:46;3.30;;;1.60;;
12663;SDS011;6396;58.490;15.528;2023-09-19T12:01:21;3.70;;;1.90;;
12663;SDS011;6396;58.490;15.528;2023-09-19T12:03:52;2.17;;;1.60;;
12663;SDS011;6396;58.490;15.528;2023-09-19T12:06:23;6.00;;;2.17;;
12663;SDS011;6396;58.490;15.528;2023-09-19T12:08:51;3.57;;;1.60;;
12663;SDS011;6396;58.490;15.528;2023-09-19T12:11:19;6.73;;;2.27;;
12663;SDS011;6396;58.490;15.528;2023-09-19T12:13:49;3.07;;;2.13;;
12663;SDS011;6396;58.490;15.528;2023-09-19T12:16:18;3.30;;;1.77;;
12663;SDS011;6396;58.490;15.528;2023-09-19T12:18:48;3.23;;;1.70;;
12663;SDS011;6396;58.490;15.528;2023-09-19T12:21:28;4.37;;;1.70;;
12663;SDS011;6396;58.490;15.528;2023-09-19T12:24:03;7.17;;;2.03;;
12663;SDS011;6396;58.490;15.528;2023-09-19T12:26:37;4.23;;;1.73;;
12663;SDS011;6396;58.490;15.528;2023-09-19T12:29:10;5.80;;;2.00;;
12663;SDS011;6396;58.490;15.528;2023-09-19T12:31:49;7.50;;;1.70;;
12663;SDS011;6396;58.490;15.528;2023-09-19T12:34:19;4.17;;;2.00;;
12663;SDS011;6396;58.490;15.528;2023-09-19T12:36:49;3.17;;;1.80;;
12663;SDS011;6396;58.490;15.528;2023-09-19T12:39:30;3.73;;;1.97;;
12663;SDS011;6396;58.490;15.528;2023-09-19T12:41:57;5.70;;;2.03;;
12663;SDS011;6396;58.490;15.528;2023-09-19T12:44:24;4.67;;;2.03;;
12663;SDS011;6396;58.490;15.528;2023-09-19T12:46:51;3.30;;;1.40;;
12663;SDS011;6396;58.490;15.528;2023-09-19T12:49:20;2.20;;;1.30;;
12663;SDS011;6396;58.490;15.528;2023-09-19T12:51:49;2.60;;;1.53;;
12663;SDS011;6396;58.490;15.528;2023-09-19T12:54:21;2.23;;;1.67;;
12663;SDS011;6396;58.490;15.528;2023-09-19T12:56:50;3.30;;;1.57;;
12663;SDS011;6396;58.490;15.528;2023-09-19T12:59:19;4.60;;;1.90;;
12663;SDS011;6396;58.490;15.528;2023-09-19T13:02:03;3.10;;;1.60;;
12663;SDS011;6396;58.490;15.528;2023-09-19T13:04:32;4.27;;;1.63;;
12663;SDS011;6396;58.490;15.528;2023-09-19T13:07:06;2.50;;;1.43;;
12663;SDS011;6396;58.490;15.528;2023-09-19T13:09:34;2.90;;;1.10;;
12663;SDS011;6396;58.490;15.528;2023-09-19T13:12:01;2.87;;;1.10;;
12663;SDS011;6396;58.490;15.528;2023-09-19T13:14:29;3.13;;;1.50;;
12663;SDS011;6396;58.490;15.528;2023-09-19T13:16:59;1.20;;;0.80;;
12663;SDS011;6396;58.490;15.528;2023-09-19T13:19:39;3.23;;;1.00;;
12663;SDS011;6396;58.490;15.528;2023-09-19T13:25:11;1.20;;;1.10;;
12663;SDS011;6396;58.490;15.528;2023-09-19T13:27:40;1.10;;;1.00;;
12663;SDS011;6396;58.490;15.528;2023-09-19T13:30:09;2.17;;;0.90;;
12663;SDS011;6396;58.490;15.528;2023-09-19T13:32:37;2.47;;;1.10;;
12663;SDS011;6396;58.490;15.528;2023-09-19T13:35:06;4.67;;;1.20;;
12663;SDS011;6396;58.490;15.528;2023-09-19T13:37:34;1.60;;;1.00;;
12663;SDS011;6396;58.490;15.528;2023-09-19T13:40:08;3.40;;;1.07;;
12663;SDS011;6396;58.490;15.528;2023-09-19T13:42:36;2.10;;;1.10;;
12663;SDS011;6396;58.490;15.528;2023-09-19T13:45:03;5.33;;;1.43;;
12663;SDS011;6396;58.490;15.528;2023-09-19T13:47:30;2.53;;;1.10;;
12663;SDS011;6396;58.490;15.528;2023-09-19T13:49:57;3.23;;;1.27;;
12663;SDS011;6396;58.490;15.528;2023-09-19T13:52:25;2.40;;;1.33;;
12663;SDS011;6396;58.490;15.528;2023-09-19T13:54:54;2.10;;;1.10;;
12663;SDS011;6396;58.490;15.528;2023-09-19T13:57:23;2.77;;;1.30;;
12663;SDS011;6396;58.490;15.528;2023-09-19T13:59:50;3.30;;;1.40;;
12663;SDS011;6396;58.490;15.528;2023-09-19T14:02:19;3.45;;;1.40;;
12663;SDS011;6396;58.490;15.528;2023-09-19T14:04:47;2.53;;;1.10;;
12663;SDS011;6396;58.490;15.528;2023-09-19T14:07:14;2.00;;;1.03;;
12663;SDS011;6396;58.490;15.528;2023-09-19T14:09:42;1.50;;;1.10;;
12663;SDS011;6396;58.490;15.528;2023-09-19T14:12:10;2.93;;;1.60;;
12663;SDS011;6396;58.490;15.528;2023-09-19T14:14:38;1.90;;;1.23;;
12663;SDS011;6396;58.490;15.528;2023-09-19T14:17:05;2.73;;;1.27;;
12663;SDS011;6396;58.490;15.528;2023-09-19T14:19:34;1.77;;;1.10;;
12663;SDS011;6396;58.490;15.528;2023-09-19T14:22:02;2.13;;;1.57;;
12663;SDS011;6396;58.490;15.528;2023-09-19T14:24:33;2.37;;;1.33;;
12663;SDS011;6396;58.490;15.528;2023-09-19T14:27:01;1.57;;;1.27;;
12663;SDS011;6396;58.490;15.528;2023-09-19T14:29:29;4.57;;;1.77;;
12663;SDS011;6396;58.490;15.528;2023-09-19T14:32:00;2.50;;;1.30;;
12663;SDS011;6396;58.490;15.528;2023-09-19T14:34:28;3.63;;;1.30;;
12663;SDS011;6396;58.490;15.528;2023-09-19T14:36:55;3.07;;;1.50;;
12663;SDS011;6396;58.490;15.528;2023-09-19T14:39:22;2.10;;;1.40;;
12663;SDS011;6396;58.490;15.528;2023-09-19T14:41:50;2.93;;;1.50;;
12663;SDS011;6396;58.490;15.528;2023-09-19T14:44:16;4.20;;;1.53;;
12663;SDS011;6396;58.490;15.528;2023-09-19T14:46:43;2.33;;;1.30;;
12663;SDS011;6396;58.490;15.528;2023-09-19T14:49:12;2.67;;;1.57;;
12663;SDS011;6396;58.490;15.528;2023-09-19T14:51:42;2.77;;;1.60;;
12663;SDS011;6396;58.490;15.528;2023-09-19T14:54:09;3.23;;;1.53;;
12663;SDS011;6396;58.490;15.528;2023-09-19T14:56:36;2.20;;;1.43;;
12663;SDS011;6396;58.490;15.528;2023-09-19T14:59:03;4.20;;;1.50;;
12663;SDS011;6396;58.490;15.528;2023-09-19T15:01:29;2.93;;;1.40;;
12663;SDS011;6396;58.490;15.528;2023-09-19T15:03:57;1.83;;;1.30;;
12663;SDS011;6396;58.490;15.528;2023-09-19T15:06:27;2.40;;;1.20;;
12663;SDS011;6396;58.490;15.528;2023-09-19T15:08:54;3.63;;;1.70;;
12663;SDS011;6396;58.490;15.528;2023-09-19T15:11:21;3.97;;;1.20;;
12663;SDS011;6396;58.490;15.528;2023-09-19T15:13:48;2.20;;;1.20;;